createdAt,value
2018-03-03T00:00:23.948Z,50.63
2018-03-03T00:02:55.384Z,51.60
2018-03-03T00:05:26.482Z,49.37
2018-03-03T00:07:57.371Z,52.33
2018-03-03T00:13:13.641Z,56.37
2018-03-03T00:15:48.118Z,54.70
2018-03-03T00:18:19.742Z,53.23
2018-03-03T00:20:50.523Z,51.87
2018-03-03T00:23:22.736Z,49.73
2018-03-03T00:26:00.250Z,51.37
2018-03-03T00:28:31.273Z,50.37
2018-03-03T00:31:02.269Z,52.97
2018-03-03T00:33:33.989Z,50.73
2018-03-03T00:36:05.185Z,50.10
2018-03-03T00:38:36.422Z,47.40
2018-03-03T00:41:07.176Z,49.10
2018-03-03T00:43:38.346Z,52.23
2018-03-03T00:46:09.610Z,50.83
2018-03-03T00:48:40.697Z,52.27
2018-03-03T00:51:11.899Z,49.43
2018-03-03T00:53:42.851Z,53.63
2018-03-03T00:56:14.001Z,53.10
2018-03-03T00:58:45.459Z,52.60
2018-03-03T01:01:16.458Z,50.87
2018-03-03T01:03:47.702Z,51.23
2018-03-03T01:06:18.944Z,51.37
2018-03-03T01:08:50.134Z,52.10
2018-03-03T01:11:21.506Z,52.60
2018-03-03T01:13:52.778Z,51.47
2018-03-03T01:16:23.965Z,54.17
2018-03-03T01:18:55.353Z,53.73
2018-03-03T01:21:26.712Z,53.70
2018-03-03T01:23:57.945Z,49.30
2018-03-03T01:26:29.481Z,55.03
2018-03-03T01:29:00.643Z,53.77
2018-03-03T01:31:31.936Z,51.27
2018-03-03T01:34:03.487Z,52.40
2018-03-03T01:36:34.551Z,53.27
2018-03-03T01:39:06.468Z,50.47
2018-03-03T01:41:38.136Z,51.13
2018-03-03T01:44:09.313Z,52.30
2018-03-03T01:46:40.192Z,54.23
2018-03-03T01:49:11.622Z,52.90
2018-03-03T01:51:44.256Z,55.00
2018-03-03T01:54:16.039Z,53.33
2018-03-03T01:56:47.944Z,52.23
2018-03-03T01:59:19.367Z,54.90
2018-03-03T02:01:50.555Z,55.37
2018-03-03T02:04:21.317Z,55.63
2018-03-03T02:06:52.997Z,55.73
2018-03-03T02:09:24.292Z,50.97
2018-03-03T02:11:55.507Z,56.43
2018-03-03T02:14:26.591Z,51.23
2018-03-03T02:16:57.211Z,52.70
2018-03-03T02:19:28.339Z,53.97
2018-03-03T02:21:59.599Z,51.93
2018-03-03T02:24:30.496Z,48.93
2018-03-03T02:27:01.202Z,51.87
2018-03-03T02:29:31.893Z,51.07
2018-03-03T02:32:03.508Z,50.70
2018-03-03T02:34:34.195Z,53.23
2018-03-03T02:37:04.565Z,53.87
2018-03-03T02:39:35.326Z,55.80
2018-03-03T02:42:06.272Z,53.43
2018-03-03T02:44:37.551Z,53.87
2018-03-03T02:47:08.311Z,54.20
2018-03-03T02:49:38.250Z,54.50
2018-03-03T02:52:08.628Z,53.37
2018-03-03T02:54:38.821Z,54.23
2018-03-03T02:57:09.813Z,54.57
2018-03-03T02:59:40.585Z,55.47
2018-03-03T03:02:11.456Z,54.73
2018-03-03T03:04:42.110Z,55.00
2018-03-03T03:07:12.679Z,53.70
2018-03-03T03:09:43.123Z,56.20
2018-03-03T03:12:13.250Z,55.37
2018-03-03T03:14:43.708Z,54.13
2018-03-03T03:17:15.152Z,56.07
2018-03-03T03:19:45.917Z,54.10
2018-03-03T03:22:15.796Z,51.90
2018-03-03T03:24:46.416Z,54.17
2018-03-03T03:27:16.998Z,52.93
2018-03-03T03:29:47.422Z,52.83
2018-03-03T03:32:17.746Z,52.83
2018-03-03T03:34:47.817Z,50.93
2018-03-03T03:37:18.157Z,54.73
2018-03-03T03:39:49.107Z,54.40
2018-03-03T03:42:19.412Z,55.60
2018-03-03T03:44:49.933Z,55.53
2018-03-03T03:47:20.865Z,54.10
2018-03-03T03:49:51.372Z,54.07
2018-03-03T03:52:21.742Z,54.03
2018-03-03T03:54:52.219Z,53.07
2018-03-03T03:57:22.457Z,51.80
2018-03-03T03:59:52.578Z,53.27
2018-03-03T04:02:22.806Z,53.20
2018-03-03T04:04:53.447Z,56.03
2018-03-03T04:07:24.108Z,56.00
2018-03-03T04:09:54.981Z,55.00
2018-03-03T04:12:25.276Z,53.23
2018-03-03T04:14:55.831Z,55.87
2018-03-03T04:17:25.693Z,54.93
2018-03-03T04:19:55.927Z,49.77
2018-03-03T04:22:25.999Z,51.97
2018-03-03T04:24:56.369Z,54.40
2018-03-03T04:27:26.584Z,53.80
2018-03-03T04:29:56.959Z,53.87
2018-03-03T04:32:27.005Z,55.23
2018-03-03T04:34:56.984Z,53.50
2018-03-03T04:37:27.363Z,52.30
2018-03-03T04:39:57.234Z,52.13
2018-03-03T04:42:27.533Z,52.00
2018-03-03T04:44:57.743Z,54.67
2018-03-03T04:47:27.664Z,52.83
2018-03-03T04:49:57.493Z,53.83
2018-03-03T04:52:27.925Z,53.03
2018-03-03T04:54:58.463Z,50.83
2018-03-03T04:57:29.955Z,53.20
2018-03-03T05:00:01.012Z,52.37
2018-03-03T05:02:32.056Z,50.60
2018-03-03T05:05:03.506Z,51.77
2018-03-03T05:07:33.951Z,53.27
2018-03-03T05:10:05.750Z,53.80
2018-03-03T05:12:36.096Z,53.73
2018-03-03T05:15:06.992Z,51.90
2018-03-03T05:17:37.810Z,52.50
2018-03-03T05:20:08.339Z,53.80
2018-03-03T05:22:39.074Z,53.07
2018-03-03T05:25:10.347Z,52.73
2018-03-03T05:27:41.701Z,51.33
2018-03-03T05:30:12.903Z,53.63
2018-03-03T05:32:43.602Z,52.10
2018-03-03T05:35:14.245Z,50.73
2018-03-03T05:37:45.314Z,52.87
2018-03-03T05:40:15.717Z,52.00
2018-03-03T05:42:48.051Z,51.53
2018-03-03T05:45:18.621Z,50.53
2018-03-03T05:47:48.997Z,49.73
2018-03-03T05:50:19.880Z,51.30
2018-03-03T05:52:51.238Z,53.40
2018-03-03T05:55:21.804Z,53.27
2018-03-03T05:57:52.889Z,50.30
2018-03-03T06:00:23.821Z,53.13
2018-03-03T06:02:54.664Z,53.67
2018-03-03T06:05:25.179Z,50.73
2018-03-03T06:07:55.839Z,54.27
2018-03-03T06:10:27.281Z,52.20
2018-03-03T06:12:58.514Z,52.87
2018-03-03T06:15:29.290Z,51.87
2018-03-03T06:18:00.581Z,54.33
2018-03-03T06:20:31.770Z,52.47
2018-03-03T06:23:03.758Z,53.50
2018-03-03T06:25:34.640Z,51.83
2018-03-03T06:28:06.335Z,52.03
2018-03-03T06:30:37.780Z,52.63
2018-03-03T06:33:08.930Z,52.57
2018-03-03T06:35:40.139Z,49.70
2018-03-03T06:38:11.376Z,53.00
2018-03-03T06:40:42.751Z,53.83
2018-03-03T06:43:14.224Z,54.37
2018-03-03T06:45:45.454Z,54.90
2018-03-03T06:48:16.522Z,50.37
2018-03-03T06:50:47.748Z,53.57
2018-03-03T06:53:19.154Z,55.57
2018-03-03T06:55:50.820Z,54.70
2018-03-03T06:58:21.784Z,54.00
2018-03-03T07:00:53.496Z,56.30
2018-03-03T07:03:24.366Z,53.67
2018-03-03T07:05:55.604Z,59.57
2018-03-03T07:08:26.940Z,55.57
2018-03-03T07:10:58.512Z,54.83
2018-03-03T07:13:31.179Z,56.27
2018-03-03T07:16:04.222Z,54.97
2018-03-03T07:18:35.434Z,52.37
2018-03-03T07:21:06.626Z,56.70
2018-03-03T07:23:38.067Z,53.93
2018-03-03T07:26:13.232Z,57.80
2018-03-03T07:28:44.489Z,54.67
2018-03-03T07:31:15.804Z,56.30
2018-03-03T07:33:47.066Z,56.40
2018-03-03T07:36:18.379Z,52.20
2018-03-03T07:38:49.471Z,55.97
2018-03-03T07:41:20.950Z,57.00
2018-03-03T07:43:53.457Z,60.43
2018-03-03T07:46:25.797Z,58.53
2018-03-03T07:48:57.499Z,53.23
2018-03-03T07:51:29.933Z,56.60
2018-03-03T07:54:01.224Z,57.20
2018-03-03T07:56:40.890Z,55.63
2018-03-03T07:59:12.044Z,59.10
2018-03-03T08:01:43.461Z,55.43
2018-03-03T08:04:14.776Z,55.87
2018-03-03T08:06:46.220Z,56.33
2018-03-03T08:09:17.615Z,53.47
2018-03-03T08:11:48.686Z,52.70
2018-03-03T08:14:21.261Z,49.07
2018-03-03T08:16:52.541Z,53.97
2018-03-03T08:19:23.857Z,57.57
2018-03-03T08:21:55.159Z,56.73
2018-03-03T08:24:28.270Z,56.00
2018-03-03T08:32:05.451Z,49.30
2018-03-03T08:40:38.983Z,52.57
2018-03-03T08:43:09.950Z,56.80
2018-03-03T08:45:41.484Z,51.40
2018-03-03T08:48:12.619Z,54.73
2018-03-03T08:50:44.574Z,54.57
2018-03-03T08:53:15.606Z,56.13
2018-03-03T08:55:46.474Z,55.93
2018-03-03T08:58:17.590Z,56.57
2018-03-03T09:00:48.714Z,64.17
2018-03-03T09:03:19.769Z,61.57
2018-03-03T09:05:50.741Z,58.87
2018-03-03T09:08:21.395Z,57.63
2018-03-03T09:10:55.228Z,56.33
2018-03-03T09:13:58.141Z,58.53
2018-03-03T09:16:42.941Z,56.10
2018-03-03T09:19:34.510Z,55.43
2018-03-03T09:22:09.501Z,54.33
2018-03-03T09:24:40.486Z,54.53
2018-03-03T09:27:11.555Z,55.70
2018-03-03T09:29:42.372Z,57.90
2018-03-03T09:32:15.486Z,57.67
2018-03-03T09:34:46.354Z,56.27
2018-03-03T09:37:21.039Z,60.33
2018-03-03T09:42:52.168Z,57.63
2018-03-03T09:45:33.612Z,58.43
2018-03-03T09:51:02.844Z,58.37
2018-03-03T09:53:34.819Z,63.37
2018-03-03T09:56:08.621Z,56.83
2018-03-03T09:58:39.550Z,57.93
2018-03-03T10:01:14.704Z,55.93
2018-03-03T10:03:47.194Z,55.87
2018-03-03T10:06:19.998Z,55.07
2018-03-03T10:08:50.734Z,65.27
2018-03-03T10:11:21.985Z,58.40
2018-03-03T10:14:12.332Z,58.17
2018-03-03T10:16:44.101Z,54.77
2018-03-03T10:19:22.357Z,58.33
2018-03-03T10:21:55.220Z,57.00
2018-03-03T10:24:28.801Z,52.40
2018-03-03T10:27:05.364Z,55.10
2018-03-03T10:33:02.399Z,51.93
2018-03-03T10:35:55.210Z,55.03
2018-03-03T10:38:36.417Z,55.03
2018-03-03T10:41:11.233Z,53.23
2018-03-03T10:43:47.345Z,53.03
2018-03-03T10:46:20.182Z,51.77
2018-03-03T10:49:01.230Z,55.67
2018-03-03T10:51:32.626Z,55.20
2018-03-03T10:54:08.225Z,55.53
2018-03-03T10:56:42.716Z,54.70
2018-03-03T10:59:36.024Z,50.97
2018-03-03T11:02:19.517Z,62.23
2018-03-03T11:05:10.481Z,50.27
2018-03-03T11:08:32.787Z,53.57
2018-03-03T11:11:52.311Z,55.20
2018-03-03T11:14:28.242Z,51.93
2018-03-03T11:17:09.511Z,53.50
2018-03-03T11:19:51.168Z,55.13
2018-03-03T11:22:24.774Z,54.33
2018-03-03T11:25:08.807Z,53.90
2018-03-03T11:27:41.428Z,52.23
2018-03-03T11:30:13.447Z,49.80
2018-03-03T11:32:53.094Z,55.17
2018-03-03T11:35:25.768Z,52.17
2018-03-03T11:37:56.637Z,53.43
2018-03-03T11:40:33.133Z,51.40
2018-03-03T11:42:58.766Z,54.87
2018-03-03T11:45:45.696Z,55.00
2018-03-03T11:48:18.544Z,55.70
2018-03-03T11:50:52.643Z,53.80
2018-03-03T11:57:15.970Z,54.60
2018-03-03T12:00:21.430Z,54.10
2018-03-03T12:02:53.237Z,52.27
2018-03-03T12:05:24.365Z,55.77
2018-03-03T12:07:55.471Z,52.47
2018-03-03T12:10:26.305Z,54.23
2018-03-03T12:12:57.972Z,54.60
2018-03-03T12:15:46.087Z,54.43
2018-03-03T12:18:19.649Z,52.47
2018-03-03T12:20:50.677Z,56.03
2018-03-03T12:23:22.023Z,51.23
2018-03-03T12:25:55.461Z,56.00
2018-03-03T12:31:24.296Z,55.87
2018-03-03T12:34:00.746Z,52.70
2018-03-03T12:36:32.007Z,51.50
2018-03-03T12:39:19.580Z,55.30
2018-03-03T12:42:17.703Z,52.23
2018-03-03T12:44:55.883Z,51.20
2018-03-03T12:47:34.778Z,54.13
2018-03-03T12:50:22.677Z,52.07
2018-03-03T12:52:54.073Z,50.30
2018-03-03T12:55:25.268Z,51.17
2018-03-03T12:57:56.417Z,55.67
2018-03-03T13:00:27.598Z,52.60
2018-03-03T13:02:58.611Z,50.00
2018-03-03T13:05:35.807Z,48.37
2018-03-03T13:08:08.252Z,41.37
2018-03-03T13:10:40.383Z,41.90
2018-03-03T13:13:13.966Z,46.73
2018-03-03T13:31:34.769Z,40.40
2018-03-03T13:40:47.175Z,44.97
2018-03-03T13:43:59.145Z,42.47
2018-03-03T13:50:15.410Z,44.53
2018-03-03T13:52:46.640Z,43.30
2018-03-03T13:55:19.643Z,44.83
2018-03-03T14:01:09.908Z,45.27
2018-03-03T14:03:59.437Z,43.60
2018-03-03T14:06:37.383Z,44.80
2018-03-03T14:09:08.695Z,48.60
2018-03-03T14:11:40.092Z,50.03
2018-03-03T14:14:11.048Z,47.83
2018-03-03T14:16:42.508Z,48.33
2018-03-03T14:19:14.163Z,49.37
2018-03-03T14:21:45.327Z,43.75
2018-03-03T14:24:16.313Z,47.27
2018-03-03T14:26:47.432Z,50.80
2018-03-03T14:29:20.284Z,49.50
2018-03-03T14:31:52.837Z,47.87
2018-03-03T20:39:03.347Z,51.83
2018-03-03T20:41:34.348Z,54.93
2018-03-03T23:14:18.819Z,65.23
2018-03-03T23:19:50.222Z,66.00
2018-03-03T23:28:24.135Z,68.60
2018-03-03T23:30:55.343Z,67.63
2018-03-03T23:33:25.969Z,69.43
2018-03-03T23:35:57.075Z,68.97
2018-03-03T23:38:27.578Z,69.60
2018-03-03T23:40:58.057Z,72.27
2018-03-03T23:43:28.565Z,70.53
2018-03-03T23:45:59.795Z,72.93
2018-03-03T23:48:29.913Z,70.80
2018-03-03T23:51:00.213Z,71.77
2018-03-03T23:53:30.882Z,68.83
2018-03-03T23:56:01.896Z,71.77
2018-03-03T23:58:32.487Z,68.30
